Terminal Aerodrome Forecast
Issued by NWS

Home | Current Version | Previous Version | Graphics & Text | Print | Product List | Glossary On
Versions: 1 2 3 4 5 6 7 8 9 10 11 12 13 14 15 16 17 18 19 20 21 22 23 24 25 26 27 28 29 30 31 32 33 34 35 36 37 38 39 40
000
FTUS43 KLOT 260400 AAB
TAFMDW
TAF AMD
KMDW 260436Z 2605/2624 18004KT P6SM SCT014 SCT250
      TEMPO 2605/2607 BKN014
     FM261300 14005KT P6SM BKN200
     FM262100 07005KT P6SM OVC150=

USA.gov is the U.S. government's official web portal to all federal, state and local government web resources and services.